Naples, South Dakota
Current Conditions -  °F | °C
As of 2:08 PM on Thursday 18 Dec 2014 (Local Time) from KATY Reporting Station
Overcast Overcast  
Wind Chill: 14°   Ceiling: 1000
Heat Index: 23°   Visibility: 7mi
Dew Point: 19°   Wind: 8mph
Humidity: 85%   Direction: 180°S
Pressure: 30.12"   Gusts: NA
Location:  44.6746°N, 97.5528°W
Report Text: KATY 182008Z AUTO 18007KT 7SM BKN010 BKN032 OVC047 M05/M07 A3012 RMK AO2 CIG 009V012 T10501072
Loading
Personal Weather Stations






























Interactive Weather Map New forecast layout! Learn more

10-Day Weather Forecast

Advertisements
Track Severe Weather on mobile